sensor_id;sensor_type;location;lat;lon;timestamp;P1;durP1;ratioP1;P2;durP2;ratioP2
27003;SDS011;14546;47.590;19.022;2022-12-18T00:01:22;85.90;;;34.38;;
27003;SDS011;14546;47.590;19.022;2022-12-18T00:03:48;86.75;;;36.35;;
27003;SDS011;14546;47.590;19.022;2022-12-18T00:06:16;88.97;;;36.45;;
27003;SDS011;14546;47.590;19.022;2022-12-18T00:08:42;87.20;;;36.03;;
27003;SDS011;14546;47.590;19.022;2022-12-18T00:11:14;90.88;;;35.83;;
27003;SDS011;14546;47.590;19.022;2022-12-18T00:13:41;95.90;;;36.95;;
27003;SDS011;14546;47.590;19.022;2022-12-18T00:16:09;82.88;;;31.92;;
27003;SDS011;14546;47.590;19.022;2022-12-18T00:18:35;88.35;;;33.88;;
27003;SDS011;14546;47.590;19.022;2022-12-18T00:21:02;80.15;;;34.90;;
27003;SDS011;14546;47.590;19.022;2022-12-18T00:23:29;82.88;;;34.83;;
27003;SDS011;14546;47.590;19.022;2022-12-18T00:26:03;91.72;;;35.13;;
27003;SDS011;14546;47.590;19.022;2022-12-18T00:28:30;83.50;;;32.60;;
27003;SDS011;14546;47.590;19.022;2022-12-18T00:31:02;81.22;;;33.90;;
27003;SDS011;14546;47.590;19.022;2022-12-18T00:33:29;82.47;;;33.70;;
27003;SDS011;14546;47.590;19.022;2022-12-18T00:35:59;84.93;;;33.92;;
27003;SDS011;14546;47.590;19.022;2022-12-18T00:38:25;79.40;;;32.83;;
27003;SDS011;14546;47.590;19.022;2022-12-18T00:40:51;91.38;;;36.22;;
27003;SDS011;14546;47.590;19.022;2022-12-18T00:43:17;84.82;;;34.20;;
27003;SDS011;14546;47.590;19.022;2022-12-18T00:45:43;82.18;;;33.47;;
27003;SDS011;14546;47.590;19.022;2022-12-18T00:48:09;79.28;;;34.53;;
27003;SDS011;14546;47.590;19.022;2022-12-18T00:50:35;75.95;;;33.75;;
27003;SDS011;14546;47.590;19.022;2022-12-18T00:53:02;81.07;;;32.92;;
27003;SDS011;14546;47.590;19.022;2022-12-18T00:55:28;82.35;;;33.70;;
27003;SDS011;14546;47.590;19.022;2022-12-18T00:57:55;78.45;;;30.17;;
27003;SDS011;14546;47.590;19.022;2022-12-18T01:00:21;82.25;;;33.22;;
27003;SDS011;14546;47.590;19.022;2022-12-18T01:02:47;77.97;;;30.80;;
27003;SDS011;14546;47.590;19.022;2022-12-18T01:05:13;82.45;;;32.92;;
27003;SDS011;14546;47.590;19.022;2022-12-18T01:07:39;76.88;;;32.30;;
27003;SDS011;14546;47.590;19.022;2022-12-18T01:10:06;82.13;;;32.80;;
27003;SDS011;14546;47.590;19.022;2022-12-18T01:12:33;81.45;;;32.45;;
27003;SDS011;14546;47.590;19.022;2022-12-18T01:14:59;74.78;;;33.67;;
27003;SDS011;14546;47.590;19.022;2022-12-18T01:17:25;84.07;;;32.60;;
27003;SDS011;14546;47.590;19.022;2022-12-18T01:19:51;82.20;;;31.73;;
27003;SDS011;14546;47.590;19.022;2022-12-18T01:22:17;89.15;;;34.03;;
27003;SDS011;14546;47.590;19.022;2022-12-18T01:24:43;80.75;;;34.13;;
27003;SDS011;14546;47.590;19.022;2022-12-18T01:27:09;80.32;;;34.25;;
27003;SDS011;14546;47.590;19.022;2022-12-18T01:29:35;85.07;;;33.88;;
27003;SDS011;14546;47.590;19.022;2022-12-18T01:32:01;83.95;;;34.30;;
27003;SDS011;14546;47.590;19.022;2022-12-18T01:34:27;79.85;;;34.30;;
27003;SDS011;14546;47.590;19.022;2022-12-18T01:36:53;82.53;;;33.22;;
27003;SDS011;14546;47.590;19.022;2022-12-18T01:39:19;82.10;;;33.33;;
27003;SDS011;14546;47.590;19.022;2022-12-18T01:41:46;83.57;;;35.47;;
27003;SDS011;14546;47.590;19.022;2022-12-18T01:49:53;80.30;;;33.55;;
27003;SDS011;14546;47.590;19.022;2022-12-18T01:52:19;82.28;;;35.05;;
27003;SDS011;14546;47.590;19.022;2022-12-18T01:54:46;80.55;;;33.78;;
27003;SDS011;14546;47.590;19.022;2022-12-18T01:57:13;86.03;;;34.35;;
27003;SDS011;14546;47.590;19.022;2022-12-18T01:59:39;78.70;;;32.42;;
27003;SDS011;14546;47.590;19.022;2022-12-18T02:02:06;87.05;;;35.60;;
27003;SDS011;14546;47.590;19.022;2022-12-18T02:04:33;82.57;;;34.97;;
27003;SDS011;14546;47.590;19.022;2022-12-18T02:09:36;78.60;;;33.08;;
27003;SDS011;14546;47.590;19.022;2022-12-18T02:17:07;83.90;;;35.65;;
27003;SDS011;14546;47.590;19.022;2022-12-18T02:19:39;75.03;;;32.63;;
27003;SDS011;14546;47.590;19.022;2022-12-18T02:22:22;87.68;;;35.30;;
27003;SDS011;14546;47.590;19.022;2022-12-18T02:27:35;90.88;;;34.72;;
27003;SDS011;14546;47.590;19.022;2022-12-18T02:30:06;81.50;;;35.03;;
27003;SDS011;14546;47.590;19.022;2022-12-18T02:32:43;87.57;;;34.30;;
27003;SDS011;14546;47.590;19.022;2022-12-18T02:35:13;88.70;;;34.35;;
27003;SDS011;14546;47.590;19.022;2022-12-18T02:37:41;92.38;;;35.17;;
27003;SDS011;14546;47.590;19.022;2022-12-18T02:40:09;88.38;;;35.17;;
27003;SDS011;14546;47.590;19.022;2022-12-18T02:42:36;88.80;;;34.80;;
27003;SDS011;14546;47.590;19.022;2022-12-18T02:45:03;85.75;;;33.25;;
27003;SDS011;14546;47.590;19.022;2022-12-18T02:47:30;87.97;;;34.78;;
27003;SDS011;14546;47.590;19.022;2022-12-18T03:01:00;95.72;;;37.22;;
27003;SDS011;14546;47.590;19.022;2022-12-18T03:03:35;83.93;;;35.03;;
27003;SDS011;14546;47.590;19.022;2022-12-18T03:06:11;90.10;;;34.70;;
27003;SDS011;14546;47.590;19.022;2022-12-18T03:08:41;88.50;;;34.92;;
27003;SDS011;14546;47.590;19.022;2022-12-18T03:11:09;86.75;;;35.85;;
27003;SDS011;14546;47.590;19.022;2022-12-18T03:16:01;87.95;;;33.15;;
27003;SDS011;14546;47.590;19.022;2022-12-18T03:20:54;95.00;;;35.60;;
27003;SDS011;14546;47.590;19.022;2022-12-18T03:23:24;92.82;;;36.05;;
27003;SDS011;14546;47.590;19.022;2022-12-18T03:25:52;82.85;;;35.78;;
27003;SDS011;14546;47.590;19.022;2022-12-18T03:28:21;82.28;;;33.28;;
27003;SDS011;14546;47.590;19.022;2022-12-18T03:30:47;85.72;;;34.08;;
27003;SDS011;14546;47.590;19.022;2022-12-18T03:33:17;81.72;;;35.47;;
27003;SDS011;14546;47.590;19.022;2022-12-18T03:35:45;99.07;;;37.60;;
27003;SDS011;14546;47.590;19.022;2022-12-18T03:38:12;112.82;;;42.55;;
27003;SDS011;14546;47.590;19.022;2022-12-18T03:45:53;87.35;;;36.60;;
27003;SDS011;14546;47.590;19.022;2022-12-18T03:48:31;96.97;;;36.92;;
27003;SDS011;14546;47.590;19.022;2022-12-18T03:51:07;90.20;;;35.85;;
27003;SDS011;14546;47.590;19.022;2022-12-18T03:56:00;89.68;;;36.35;;
27003;SDS011;14546;47.590;19.022;2022-12-18T03:58:27;84.20;;;35.38;;
27003;SDS011;14546;47.590;19.022;2022-12-18T04:00:55;81.70;;;33.85;;
27003;SDS011;14546;47.590;19.022;2022-12-18T04:03:22;75.60;;;32.72;;
27003;SDS011;14546;47.590;19.022;2022-12-18T04:05:49;77.80;;;33.58;;
27003;SDS011;14546;47.590;19.022;2022-12-18T04:08:17;80.95;;;34.13;;
27003;SDS011;14546;47.590;19.022;2022-12-18T04:10:44;85.15;;;35.30;;
27003;SDS011;14546;47.590;19.022;2022-12-18T04:13:10;84.45;;;32.53;;
27003;SDS011;14546;47.590;19.022;2022-12-18T04:15:36;79.80;;;33.22;;
27003;SDS011;14546;47.590;19.022;2022-12-18T04:18:02;90.20;;;36.40;;
27003;SDS011;14546;47.590;19.022;2022-12-18T04:20:28;79.70;;;33.25;;
27003;SDS011;14546;47.590;19.022;2022-12-18T04:22:55;91.18;;;37.17;;
27003;SDS011;14546;47.590;19.022;2022-12-18T04:25:21;87.18;;;35.30;;
27003;SDS011;14546;47.590;19.022;2022-12-18T04:27:47;83.53;;;33.75;;
27003;SDS011;14546;47.590;19.022;2022-12-18T04:30:13;84.05;;;34.85;;
27003;SDS011;14546;47.590;19.022;2022-12-18T04:32:39;78.18;;;32.28;;
27003;SDS011;14546;47.590;19.022;2022-12-18T04:35:05;89.72;;;34.20;;
27003;SDS011;14546;47.590;19.022;2022-12-18T04:37:35;80.95;;;33.03;;
27003;SDS011;14546;47.590;19.022;2022-12-18T04:40:01;87.53;;;34.45;;
27003;SDS011;14546;47.590;19.022;2022-12-18T04:42:27;86.95;;;34.75;;
27003;SDS011;14546;47.590;19.022;2022-12-18T04:44:53;80.35;;;33.90;;
27003;SDS011;14546;47.590;19.022;2022-12-18T04:47:19;84.50;;;34.05;;
27003;SDS011;14546;47.590;19.022;2022-12-18T04:49:45;80.28;;;34.58;;
27003;SDS011;14546;47.590;19.022;2022-12-18T04:52:11;84.28;;;34.05;;
27003;SDS011;14546;47.590;19.022;2022-12-18T04:54:37;85.95;;;34.25;;
27003;SDS011;14546;47.590;19.022;2022-12-18T04:57:03;87.97;;;35.10;;
27003;SDS011;14546;47.590;19.022;2022-12-18T04:59:29;87.43;;;35.55;;
27003;SDS011;14546;47.590;19.022;2022-12-18T05:01:56;92.82;;;35.75;;
27003;SDS011;14546;47.590;19.022;2022-12-18T05:04:22;82.45;;;33.78;;
27003;SDS011;14546;47.590;19.022;2022-12-18T05:06:48;91.15;;;33.53;;
27003;SDS011;14546;47.590;19.022;2022-12-18T05:09:14;82.53;;;33.53;;
27003;SDS011;14546;47.590;19.022;2022-12-18T05:11:41;92.55;;;35.67;;
27003;SDS011;14546;47.590;19.022;2022-12-18T05:14:07;92.97;;;34.40;;
27003;SDS011;14546;47.590;19.022;2022-12-18T05:16:33;89.40;;;34.40;;
27003;SDS011;14546;47.590;19.022;2022-12-18T05:19:00;84.10;;;32.55;;
27003;SDS011;14546;47.590;19.022;2022-12-18T05:21:27;78.35;;;33.45;;
27003;SDS011;14546;47.590;19.022;2022-12-18T05:23:53;90.97;;;35.25;;
27003;SDS011;14546;47.590;19.022;2022-12-18T05:26:19;93.35;;;36.25;;
27003;SDS011;14546;47.590;19.022;2022-12-18T05:28:45;84.57;;;34.42;;
27003;SDS011;14546;47.590;19.022;2022-12-18T05:31:12;80.00;;;32.22;;
27003;SDS011;14546;47.590;19.022;2022-12-18T05:33:38;89.50;;;35.10;;
27003;SDS011;14546;47.590;19.022;2022-12-18T05:36:05;88.05;;;34.70;;
27003;SDS011;14546;47.590;19.022;2022-12-18T05:38:32;91.32;;;33.50;;
27003;SDS011;14546;47.590;19.022;2022-12-18T05:40:58;85.72;;;34.60;;
27003;SDS011;14546;47.590;19.022;2022-12-18T05:43:25;86.82;;;34.60;;
27003;SDS011;14546;47.590;19.022;2022-12-18T05:45:51;85.32;;;34.08;;
27003;SDS011;14546;47.590;19.022;2022-12-18T05:48:18;80.07;;;33.47;;
27003;SDS011;14546;47.590;19.022;2022-12-18T05:50:44;85.53;;;34.03;;
27003;SDS011;14546;47.590;19.022;2022-12-18T05:53:11;80.70;;;32.78;;
27003;SDS011;14546;47.590;19.022;2022-12-18T05:55:38;75.97;;;32.33;;
27003;SDS011;14546;47.590;19.022;2022-12-18T05:58:04;81.60;;;33.85;;
27003;SDS011;14546;47.590;19.022;2022-12-18T06:00:32;82.22;;;32.88;;
27003;SDS011;14546;47.590;19.022;2022-12-18T06:02:59;85.07;;;33.50;;
27003;SDS011;14546;47.590;19.022;2022-12-18T06:05:25;82.88;;;33.40;;
27003;SDS011;14546;47.590;19.022;2022-12-18T06:07:52;83.80;;;33.10;;
27003;SDS011;14546;47.590;19.022;2022-12-18T06:10:18;91.72;;;36.85;;
27003;SDS011;14546;47.590;19.022;2022-12-18T06:12:45;85.68;;;33.67;;
27003;SDS011;14546;47.590;19.022;2022-12-18T06:15:12;85.75;;;33.25;;
27003;SDS011;14546;47.590;19.022;2022-12-18T06:17:38;78.00;;;32.35;;
27003;SDS011;14546;47.590;19.022;2022-12-18T06:20:04;77.28;;;31.88;;
27003;SDS011;14546;47.590;19.022;2022-12-18T06:22:32;83.32;;;33.38;;
27003;SDS011;14546;47.590;19.022;2022-12-18T06:24:59;86.30;;;33.40;;
27003;SDS011;14546;47.590;19.022;2022-12-18T06:27:25;75.72;;;31.33;;
27003;SDS011;14546;47.590;19.022;2022-12-18T06:29:51;83.72;;;31.88;;
27003;SDS011;14546;47.590;19.022;2022-12-18T06:32:18;79.05;;;32.80;;
27003;SDS011;14546;47.590;19.022;2022-12-18T06:34:44;82.13;;;32.17;;
27003;SDS011;14546;47.590;19.022;2022-12-18T06:37:10;75.65;;;31.83;;
27003;SDS011;14546;47.590;19.022;2022-12-18T06:39:36;80.78;;;32.60;;
27003;SDS011;14546;47.590;19.022;2022-12-18T06:42:02;81.40;;;31.42;;
27003;SDS011;14546;47.590;19.022;2022-12-18T06:44:28;80.75;;;31.30;;
27003;SDS011;14546;47.590;19.022;2022-12-18T06:46:55;83.45;;;32.92;;
27003;SDS011;14546;47.590;19.022;2022-12-18T06:49:21;85.53;;;33.13;;
27003;SDS011;14546;47.590;19.022;2022-12-18T06:51:47;81.75;;;32.75;;
27003;SDS011;14546;47.590;19.022;2022-12-18T06:54:14;84.28;;;33.08;;
27003;SDS011;14546;47.590;19.022;2022-12-18T06:56:40;76.90;;;31.00;;
27003;SDS011;14546;47.590;19.022;2022-12-18T06:59:06;76.45;;;31.17;;
27003;SDS011;14546;47.590;19.022;2022-12-18T07:01:32;81.40;;;33.10;;
27003;SDS011;14546;47.590;19.022;2022-12-18T07:03:58;78.28;;;31.90;;
27003;SDS011;14546;47.590;19.022;2022-12-18T07:06:25;79.35;;;31.60;;
27003;SDS011;14546;47.590;19.022;2022-12-18T07:08:51;71.00;;;30.35;;
27003;SDS011;14546;47.590;19.022;2022-12-18T07:11:18;87.90;;;33.03;;
27003;SDS011;14546;47.590;19.022;2022-12-18T07:13:44;88.20;;;34.65;;
27003;SDS011;14546;47.590;19.022;2022-12-18T07:16:14;84.40;;;33.80;;
27003;SDS011;14546;47.590;19.022;2022-12-18T07:18:40;91.40;;;34.72;;
27003;SDS011;14546;47.590;19.022;2022-12-18T07:21:07;90.88;;;34.72;;
27003;SDS011;14546;47.590;19.022;2022-12-18T07:23:34;81.68;;;32.00;;
27003;SDS011;14546;47.590;19.022;2022-12-18T07:26:01;80.43;;;33.85;;
27003;SDS011;14546;47.590;19.022;2022-12-18T07:28:28;83.55;;;33.75;;
27003;SDS011;14546;47.590;19.022;2022-12-18T07:30:54;82.22;;;34.70;;
27003;SDS011;14546;47.590;19.022;2022-12-18T07:33:20;94.82;;;36.42;;
27003;SDS011;14546;47.590;19.022;2022-12-18T07:35:46;83.80;;;33.28;;
27003;SDS011;14546;47.590;19.022;2022-12-18T07:38:12;87.07;;;33.22;;
27003;SDS011;14546;47.590;19.022;2022-12-18T07:40:38;83.05;;;34.70;;
27003;SDS011;14546;47.590;19.022;2022-12-18T07:43:04;85.15;;;34.50;;
27003;SDS011;14546;47.590;19.022;2022-12-18T07:45:30;83.53;;;35.78;;
27003;SDS011;14546;47.590;19.022;2022-12-18T07:47:56;86.97;;;34.08;;
27003;SDS011;14546;47.590;19.022;2022-12-18T07:50:22;86.80;;;32.90;;
27003;SDS011;14546;47.590;19.022;2022-12-18T07:52:49;80.50;;;32.55;;
27003;SDS011;14546;47.590;19.022;2022-12-18T07:55:15;82.18;;;33.15;;
27003;SDS011;14546;47.590;19.022;2022-12-18T07:57:41;84.57;;;33.03;;
27003;SDS011;14546;47.590;19.022;2022-12-18T08:00:07;87.32;;;34.90;;
27003;SDS011;14546;47.590;19.022;2022-12-18T08:02:33;87.78;;;33.67;;
27003;SDS011;14546;47.590;19.022;2022-12-18T08:04:59;89.03;;;35.65;;
27003;SDS011;14546;47.590;19.022;2022-12-18T08:07:25;88.75;;;36.83;;
27003;SDS011;14546;47.590;19.022;2022-12-18T08:09:51;92.40;;;34.63;;
27003;SDS011;14546;47.590;19.022;2022-12-18T08:12:17;91.43;;;37.70;;
27003;SDS011;14546;47.590;19.022;2022-12-18T08:14:43;92.70;;;38.22;;
27003;SDS011;14546;47.590;19.022;2022-12-18T08:17:09;88.78;;;37.58;;
27003;SDS011;14546;47.590;19.022;2022-12-18T08:19:35;92.95;;;36.70;;
27003;SDS011;14546;47.590;19.022;2022-12-18T08:22:01;88.15;;;36.45;;
27003;SDS011;14546;47.590;19.022;2022-12-18T08:24:27;82.57;;;34.92;;
27003;SDS011;14546;47.590;19.022;2022-12-18T08:26:53;89.45;;;35.80;;
27003;SDS011;14546;47.590;19.022;2022-12-18T08:29:19;90.80;;;36.80;;
27003;SDS011;14546;47.590;19.022;2022-12-18T08:31:45;90.93;;;36.03;;
27003;SDS011;14546;47.590;19.022;2022-12-18T08:34:12;85.95;;;36.35;;
27003;SDS011;14546;47.590;19.022;2022-12-18T08:36:41;94.82;;;35.90;;
27003;SDS011;14546;47.590;19.022;2022-12-18T08:39:07;84.18;;;36.60;;
27003;SDS011;14546;47.590;19.022;2022-12-18T08:41:33;89.47;;;37.45;;
27003;SDS011;14546;47.590;19.022;2022-12-18T08:43:59;83.03;;;35.13;;
27003;SDS011;14546;47.590;19.022;2022-12-18T08:46:43;93.47;;;37.47;;
27003;SDS011;14546;47.590;19.022;2022-12-18T08:49:10;81.05;;;34.95;;
27003;SDS011;14546;47.590;19.022;2022-12-18T08:51:37;84.30;;;35.08;;
27003;SDS011;14546;47.590;19.022;2022-12-18T08:54:03;95.05;;;36.40;;
27003;SDS011;14546;47.590;19.022;2022-12-18T08:56:29;84.72;;;35.88;;
27003;SDS011;14546;47.590;19.022;2022-12-18T08:58:55;88.63;;;35.15;;
27003;SDS011;14546;47.590;19.022;2022-12-18T09:01:22;88.88;;;36.92;;
27003;SDS011;14546;47.590;19.022;2022-12-18T09:03:48;87.20;;;36.90;;
27003;SDS011;14546;47.590;19.022;2022-12-18T09:06:15;89.80;;;35.88;;
27003;SDS011;14546;47.590;19.022;2022-12-18T09:08:41;82.68;;;36.00;;
27003;SDS011;14546;47.590;19.022;2022-12-18T09:11:21;74.00;;;32.60;;
27003;SDS011;14546;47.590;19.022;2022-12-18T09:13:47;76.55;;;33.30;;
27003;SDS011;14546;47.590;19.022;2022-12-18T09:16:23;73.95;;;33.22;;
27003;SDS011;14546;47.590;19.022;2022-12-18T09:18:49;78.60;;;33.78;;
27003;SDS011;14546;47.590;19.022;2022-12-18T09:21:16;74.97;;;33.15;;
27003;SDS011;14546;47.590;19.022;2022-12-18T09:23:43;68.00;;;32.38;;
27003;SDS011;14546;47.590;19.022;2022-12-18T09:26:09;69.00;;;33.45;;
27003;SDS011;14546;47.590;19.022;2022-12-18T09:28:35;71.68;;;33.63;;
27003;SDS011;14546;47.590;19.022;2022-12-18T09:31:05;69.53;;;32.97;;
27003;SDS011;14546;47.590;19.022;2022-12-18T09:33:32;74.97;;;33.95;;
27003;SDS011;14546;47.590;19.022;2022-12-18T09:36:00;78.53;;;33.92;;
27003;SDS011;14546;47.590;19.022;2022-12-18T09:38:26;70.32;;;35.58;;
27003;SDS011;14546;47.590;19.022;2022-12-18T09:40:53;72.85;;;35.53;;
27003;SDS011;14546;47.590;19.022;2022-12-18T09:43:28;72.65;;;36.58;;
27003;SDS011;14546;47.590;19.022;2022-12-18T09:45:59;71.47;;;33.83;;
27003;SDS011;14546;47.590;19.022;2022-12-18T09:48:28;70.85;;;34.38;;
27003;SDS011;14546;47.590;19.022;2022-12-18T09:50:58;65.80;;;30.95;;
27003;SDS011;14546;47.590;19.022;2022-12-18T09:53:27;65.28;;;31.08;;
27003;SDS011;14546;47.590;19.022;2022-12-18T09:55:56;63.95;;;31.65;;
27003;SDS011;14546;47.590;19.022;2022-12-18T10:00:51;61.03;;;29.73;;
27003;SDS011;14546;47.590;19.022;2022-12-18T10:03:17;56.85;;;28.70;;
27003;SDS011;14546;47.590;19.022;2022-12-18T10:10:51;55.83;;;28.20;;
27003;SDS011;14546;47.590;19.022;2022-12-18T10:16:19;59.25;;;30.25;;
27003;SDS011;14546;47.590;19.022;2022-12-18T10:21:51;56.03;;;29.13;;
27003;SDS011;14546;47.590;19.022;2022-12-18T10:24:24;59.38;;;28.88;;
27003;SDS011;14546;47.590;19.022;2022-12-18T10:29:18;54.47;;;27.10;;
27003;SDS011;14546;47.590;19.022;2022-12-18T10:31:47;61.60;;;30.08;;
27003;SDS011;14546;47.590;19.022;2022-12-18T10:34:13;56.05;;;29.17;;
27003;SDS011;14546;47.590;19.022;2022-12-18T10:36:40;56.40;;;29.05;;
27003;SDS011;14546;47.590;19.022;2022-12-18T10:41:42;55.45;;;28.27;;
27003;SDS011;14546;47.590;19.022;2022-12-18T10:44:18;57.10;;;30.13;;
27003;SDS011;14546;47.590;19.022;2022-12-18T10:46:46;57.83;;;25.63;;
27003;SDS011;14546;47.590;19.022;2022-12-18T10:49:18;57.25;;;29.73;;
27003;SDS011;14546;47.590;19.022;2022-12-18T10:51:50;60.97;;;27.63;;
27003;SDS011;14546;47.590;19.022;2022-12-18T10:54:18;59.55;;;28.30;;
27003;SDS011;14546;47.590;19.022;2022-12-18T10:56:45;55.08;;;27.85;;
27003;SDS011;14546;47.590;19.022;2022-12-18T10:59:14;52.40;;;27.77;;
27003;SDS011;14546;47.590;19.022;2022-12-18T11:04:15;54.75;;;26.88;;
27003;SDS011;14546;47.590;19.022;2022-12-18T11:06:52;56.33;;;28.17;;
27003;SDS011;14546;47.590;19.022;2022-12-18T11:09:22;55.00;;;27.55;;
27003;SDS011;14546;47.590;19.022;2022-12-18T11:11:52;55.38;;;27.92;;
27003;SDS011;14546;47.590;19.022;2022-12-18T11:14:23;53.40;;;27.35;;
27003;SDS011;14546;47.590;19.022;2022-12-18T11:16:50;52.58;;;26.98;;
27003;SDS011;14546;47.590;19.022;2022-12-18T11:19:21;56.67;;;26.15;;
27003;SDS011;14546;47.590;19.022;2022-12-18T11:21:47;54.10;;;25.88;;
27003;SDS011;14546;47.590;19.022;2022-12-18T11:24:49;54.08;;;26.40;;
27003;SDS011;14546;47.590;19.022;2022-12-18T11:27:06;50.58;;;25.38;;
27003;SDS011;14546;47.590;19.022;2022-12-18T11:29:41;50.72;;;25.48;;
27003;SDS011;14546;47.590;19.022;2022-12-18T11:34:55;55.08;;;28.58;;
27003;SDS011;14546;47.590;19.022;2022-12-18T11:37:24;49.42;;;24.50;;
27003;SDS011;14546;47.590;19.022;2022-12-18T11:40:07;44.45;;;19.75;;
27003;SDS011;14546;47.590;19.022;2022-12-18T11:47:48;45.28;;;23.17;;
27003;SDS011;14546;47.590;19.022;2022-12-18T11:50:19;45.85;;;23.52;;
27003;SDS011;14546;47.590;19.022;2022-12-18T11:52:47;55.88;;;23.42;;
27003;SDS011;14546;47.590;19.022;2022-12-18T11:55:14;47.53;;;23.83;;
27003;SDS011;14546;47.590;19.022;2022-12-18T12:00:21;42.45;;;21.02;;
27003;SDS011;14546;47.590;19.022;2022-12-18T12:14:04;38.75;;;20.00;;
27003;SDS011;14546;47.590;19.022;2022-12-18T12:16:36;39.65;;;20.52;;
27003;SDS011;14546;47.590;19.022;2022-12-18T12:26:51;40.15;;;20.33;;
27003;SDS011;14546;47.590;19.022;2022-12-18T12:34:22;39.85;;;19.10;;
27003;SDS011;14546;47.590;19.022;2022-12-18T12:37:00;36.90;;;19.27;;
27003;SDS011;14546;47.590;19.022;2022-12-18T12:39:34;36.30;;;17.98;;
27003;SDS011;14546;47.590;19.022;2022-12-18T12:42:01;36.25;;;19.83;;
27003;SDS011;14546;47.590;19.022;2022-12-18T12:44:48;36.20;;;19.42;;
27003;SDS011;14546;47.590;19.022;2022-12-18T12:47:21;36.60;;;18.42;;
27003;SDS011;14546;47.590;19.022;2022-12-18T12:49:50;33.38;;;19.45;;
27003;SDS011;14546;47.590;19.022;2022-12-18T12:52:28;39.55;;;19.83;;
27003;SDS011;14546;47.590;19.022;2022-12-18T12:54:55;36.03;;;18.65;;
27003;SDS011;14546;47.590;19.022;2022-12-18T13:00:02;31.75;;;18.85;;
27003;SDS011;14546;47.590;19.022;2022-12-18T13:02:42;36.50;;;18.90;;
27003;SDS011;14546;47.590;19.022;2022-12-18T13:07:46;35.08;;;19.48;;
27003;SDS011;14546;47.590;19.022;2022-12-18T13:12:54;36.85;;;19.50;;
27003;SDS011;14546;47.590;19.022;2022-12-18T13:15:21;44.25;;;19.20;;
27003;SDS011;14546;47.590;19.022;2022-12-18T13:17:48;39.03;;;20.25;;
27003;SDS011;14546;47.590;19.022;2022-12-18T13:20:15;36.15;;;18.33;;
27003;SDS011;14546;47.590;19.022;2022-12-18T13:25:27;41.83;;;20.10;;
27003;SDS011;14546;47.590;19.022;2022-12-18T13:27:59;38.35;;;20.55;;
27003;SDS011;14546;47.590;19.022;2022-12-18T13:35:51;45.78;;;23.05;;
27003;SDS011;14546;47.590;19.022;2022-12-18T13:45:50;41.70;;;20.20;;
27003;SDS011;14546;47.590;19.022;2022-12-18T13:48:24;41.55;;;20.02;;
27003;SDS011;14546;47.590;19.022;2022-12-18T13:50:52;43.30;;;20.17;;
27003;SDS011;14546;47.590;19.022;2022-12-18T13:53:20;43.97;;;19.88;;
27003;SDS011;14546;47.590;19.022;2022-12-18T13:55:47;40.15;;;19.77;;
27003;SDS011;14546;47.590;19.022;2022-12-18T13:58:14;40.95;;;19.55;;
27003;SDS011;14546;47.590;19.022;2022-12-18T14:00:41;37.10;;;18.63;;
27003;SDS011;14546;47.590;19.022;2022-12-18T14:03:21;37.10;;;18.20;;
27003;SDS011;14546;47.590;19.022;2022-12-18T14:06:05;37.72;;;17.77;;
27003;SDS011;14546;47.590;19.022;2022-12-18T14:08:33;44.33;;;20.52;;
27003;SDS011;14546;47.590;19.022;2022-12-18T14:10:59;42.33;;;19.88;;
27003;SDS011;14546;47.590;19.022;2022-12-18T14:13:31;47.50;;;19.90;;
27003;SDS011;14546;47.590;19.022;2022-12-18T14:16:00;45.05;;;20.90;;
27003;SDS011;14546;47.590;19.022;2022-12-18T14:21:05;44.15;;;19.27;;
27003;SDS011;14546;47.590;19.022;2022-12-18T14:25:57;41.22;;;19.25;;
27003;SDS011;14546;47.590;19.022;2022-12-18T14:28:24;42.47;;;18.92;;
27003;SDS011;14546;47.590;19.022;2022-12-18T14:30:51;46.10;;;20.08;;
27003;SDS011;14546;47.590;19.022;2022-12-18T14:33:18;39.20;;;19.95;;
27003;SDS011;14546;47.590;19.022;2022-12-18T14:36:04;46.20;;;21.35;;
27003;SDS011;14546;47.590;19.022;2022-12-18T14:38:31;49.67;;;20.98;;
27003;SDS011;14546;47.590;19.022;2022-12-18T14:40:59;51.67;;;24.15;;
27003;SDS011;14546;47.590;19.022;2022-12-18T14:43:35;64.32;;;26.60;;
27003;SDS011;14546;47.590;19.022;2022-12-18T14:46:02;58.28;;;26.90;;
27003;SDS011;14546;47.590;19.022;2022-12-18T14:48:36;64.13;;;27.98;;
27003;SDS011;14546;47.590;19.022;2022-12-18T14:51:05;71.05;;;29.05;;
27003;SDS011;14546;47.590;19.022;2022-12-18T14:53:42;55.83;;;25.88;;
27003;SDS011;14546;47.590;19.022;2022-12-18T14:56:13;63.58;;;27.80;;
27003;SDS011;14546;47.590;19.022;2022-12-18T14:58:44;60.95;;;28.10;;
27003;SDS011;14546;47.590;19.022;2022-12-18T15:01:17;72.30;;;29.08;;
27003;SDS011;14546;47.590;19.022;2022-12-18T15:03:43;72.22;;;28.38;;
27003;SDS011;14546;47.590;19.022;2022-12-18T15:06:16;68.85;;;30.58;;
27003;SDS011;14546;47.590;19.022;2022-12-18T15:08:43;60.97;;;28.85;;
27003;SDS011;14546;47.590;19.022;2022-12-18T15:11:54;72.05;;;30.85;;
27003;SDS011;14546;47.590;19.022;2022-12-18T15:14:00;73.82;;;31.73;;
27003;SDS011;14546;47.590;19.022;2022-12-18T15:16:26;68.10;;;30.45;;
27003;SDS011;14546;47.590;19.022;2022-12-18T15:18:52;66.60;;;30.65;;
27003;SDS011;14546;47.590;19.022;2022-12-18T15:21:19;75.60;;;32.58;;
27003;SDS011;14546;47.590;19.022;2022-12-18T15:23:49;74.72;;;31.75;;
27003;SDS011;14546;47.590;19.022;2022-12-18T15:26:17;74.72;;;32.33;;
27003;SDS011;14546;47.590;19.022;2022-12-18T15:33:43;73.13;;;33.00;;
27003;SDS011;14546;47.590;19.022;2022-12-18T15:36:12;79.75;;;33.78;;
27003;SDS011;14546;47.590;19.022;2022-12-18T15:38:38;82.82;;;34.25;;
27003;SDS011;14546;47.590;19.022;2022-12-18T15:41:12;75.95;;;35.08;;
27003;SDS011;14546;47.590;19.022;2022-12-18T15:43:39;81.68;;;34.72;;
27003;SDS011;14546;47.590;19.022;2022-12-18T15:46:11;81.57;;;35.05;;
27003;SDS011;14546;47.590;19.022;2022-12-18T15:48:40;78.63;;;35.22;;
27003;SDS011;14546;47.590;19.022;2022-12-18T15:53:39;79.63;;;36.33;;
27003;SDS011;14546;47.590;19.022;2022-12-18T15:56:08;79.53;;;36.42;;
27003;SDS011;14546;47.590;19.022;2022-12-18T15:58:54;87.50;;;37.60;;
27003;SDS011;14546;47.590;19.022;2022-12-18T16:01:21;93.78;;;39.05;;
27003;SDS011;14546;47.590;19.022;2022-12-18T16:03:48;83.00;;;37.92;;
27003;SDS011;14546;47.590;19.022;2022-12-18T16:06:15;90.35;;;38.22;;
27003;SDS011;14546;47.590;19.022;2022-12-18T16:08:42;90.45;;;39.65;;
27003;SDS011;14546;47.590;19.022;2022-12-18T16:11:42;90.03;;;40.13;;
27003;SDS011;14546;47.590;19.022;2022-12-18T16:14:39;90.80;;;39.53;;
27003;SDS011;14546;47.590;19.022;2022-12-18T16:17:02;87.22;;;36.35;;
27003;SDS011;14546;47.590;19.022;2022-12-18T16:19:29;73.03;;;34.03;;
27003;SDS011;14546;47.590;19.022;2022-12-18T16:21:57;85.25;;;34.95;;
27003;SDS011;14546;47.590;19.022;2022-12-18T16:24:28;75.47;;;33.97;;
27003;SDS011;14546;47.590;19.022;2022-12-18T16:26:56;68.95;;;31.83;;